Curry, Indiana
Current Conditions -  °F | °C
As of 8:53 PM on Wednesday 17 Dec 2014 (Local Time) from KHUF Reporting Station
Overcast Overcast  
Wind Chill: 17°   Ceiling: 1300
Heat Index: 24°   Visibility: 9mi
Dew Point: 19°   Wind: 6mph
Humidity: 81%   Direction: 290°WNW
Pressure: 30.32"   Gusts: NA
Location:  39.2094°N, 87.3438°W
Report Text: KHUF 180153Z 29005KT 9SM OVC013 M04/M07 A3032 RMK AO2 SLP273 T10441072
Loading
Personal Weather Stations






























Interactive Weather Map New forecast layout! Learn more

10-Day Weather Forecast

Advertisements
Track Severe Weather on mobile